Terminal Aerodrome Forecast
Issued by NWS

Home | Current Version | Previous Version | Text Only | Print | Product List | Glossary On
Versions: 1 2 3 4 5 6 7 8 9 10 11 12 13 14 15 16 17 18 19 20 21 22 23 24 25 26 27 28 29 30 31
000
FTUS44 KOUN 281130
TAFHBR
TAF
KHBR 281130Z 2812/0112 11010KT 3SM -SN OVC025
      TEMPO 2812/2816 BKN012 OVC025
     FM281800 14010KT 5SM -FZDZ OVC008
     FM010100 14010KT 3SM -FZDZ BR OVC005
     FM010600 14006KT 1/2SM FZDZ OVC003 PROB30 0106/0112 1/2SM FZDZ
      FG VV001=

USA.gov is the U.S. government's official web portal to all federal, state and local government web resources and services.